Time;durP1;ratioP1;P1;durP2;ratioP2;P2;SDS_P1;SDS_P2;PMS_P1;PMS_P2;Temp;Humidity;BMP_temperature;BMP_pressure;BME280_temperature;BME280_humidity;BME280_pressure;Samples;Min_cycle;Max_cycle;Signal;HPM_P1;HPM_P2
2022/07/27 00:01:08;;;;;;;5.38;2.95;;;17.00;99.90;;;;;;5116091;28;20495;-71
2022/07/27 00:03:34;;;;;;;7.57;3.35;;;16.90;99.90;;;;;;5116460;28;20040;-71
2022/07/27 00:06:00;;;;;;;8.68;3.33;;;16.90;99.90;;;;;;5116147;28;20456;-72
2022/07/27 00:08:26;;;;;;;7.72;3.00;;;17.00;99.90;;;;;;5108159;28;20115;-72
2022/07/27 00:10:52;;;;;;;8.13;2.92;;;17.00;99.90;;;;;;5109613;28;20032;-72
2022/07/27 00:13:18;;;;;;;15.68;3.58;;;16.90;99.90;;;;;;5116027;28;20051;-64
2022/07/27 00:15:43;;;;;;;11.70;3.70;;;16.90;99.90;;;;;;5115788;28;20024;-72
2022/07/27 00:18:09;;;;;;;7.40;3.30;;;16.80;99.90;;;;;;5097787;28;20437;-62
2022/07/27 00:20:36;;;;;;;6.60;2.75;;;16.80;99.90;;;;;;5115965;28;20463;-63
2022/07/27 00:23:02;;;;;;;6.65;3.05;;;16.70;99.90;;;;;;5116006;28;20028;-72
2022/07/27 00:25:28;;;;;;;7.68;2.60;;;16.70;99.90;;;;;;5115520;28;20110;-63
2022/07/27 00:27:56;;;;;;;9.07;2.60;;;16.80;99.90;;;;;;5116037;28;20139;-62
2022/07/27 00:30:23;;;;;;;5.72;2.53;;;16.80;99.90;;;;;;5115512;28;20389;-66
2022/07/27 00:32:49;;;;;;;5.10;2.55;;;16.80;99.90;;;;;;5115684;28;20056;-63
2022/07/27 00:35:15;;;;;;;6.88;2.70;;;16.90;99.90;;;;;;5115634;28;20070;-66
2022/07/27 00:37:40;;;;;;;5.38;2.85;;;16.80;99.90;;;;;;5115691;28;20480;-65
2022/07/27 00:40:07;;;;;;;7.57;2.63;;;16.70;99.90;;;;;;5115666;28;20035;-68
2022/07/27 00:42:34;;;;;;;10.40;3.97;;;16.80;99.90;;;;;;5115436;28;20090;-64
2022/07/27 00:45:00;;;;;;;9.23;3.03;;;16.80;99.90;;;;;;5115079;28;20020;-73
2022/07/27 00:47:26;;;;;;;5.82;3.38;;;16.70;99.90;;;;;;5115390;28;20058;-70
2022/07/27 00:49:52;;;;;;;6.90;3.70;;;16.80;99.90;;;;;;5115710;28;20027;-72
2022/07/27 00:52:20;;;;;;;7.15;2.97;;;16.70;99.90;;;;;;5115196;28;20031;-71
2022/07/27 00:54:46;;;;;;;7.95;3.38;;;16.60;99.90;;;;;;5115191;28;20028;-68
2022/07/27 00:57:13;;;;;;;9.25;3.20;;;16.60;99.90;;;;;;5114979;28;20034;-71
2022/07/27 00:59:40;;;;;;;7.65;3.00;;;16.60;99.90;;;;;;5115007;28;20032;-72
2022/07/27 01:02:07;;;;;;;10.40;3.38;;;16.50;99.90;;;;;;5109407;28;20028;-71
2022/07/27 01:04:33;;;;;;;9.82;2.92;;;16.50;99.90;;;;;;5110615;28;20026;-63
2022/07/27 01:07:00;;;;;;;5.13;2.50;;;16.50;99.90;;;;;;5098079;28;20057;-65
2022/07/27 01:12:13;;;;;;;3.22;1.95;;;16.50;99.90;;;;;;5101967;28;20028;-72
2022/07/27 01:14:39;;;;;;;7.57;1.88;;;16.40;99.90;;;;;;5095630;28;20043;-72
2022/07/27 01:17:06;;;;;;;5.20;1.70;;;16.30;99.90;;;;;;5114805;28;20062;-70
2022/07/27 01:19:34;;;;;;;8.15;1.60;;;16.30;99.90;;;;;;5111825;28;20490;-68
2022/07/27 01:22:03;;;;;;;6.40;1.45;;;16.30;99.90;;;;;;5103182;28;20027;-70
2022/07/27 01:24:29;;;;;;;3.70;1.40;;;16.20;99.90;;;;;;5096421;28;20036;-71
2022/07/27 01:26:55;;;;;;;7.82;2.30;;;16.20;99.90;;;;;;5114686;28;20110;-69
2022/07/27 01:29:21;;;;;;;2.90;1.42;;;16.20;99.90;;;;;;5114635;28;20031;-71
2022/07/27 01:31:47;;;;;;;3.92;1.42;;;16.20;99.90;;;;;;5114533;28;20475;-69
2022/07/27 01:34:13;;;;;;;5.15;1.63;;;16.00;99.90;;;;;;5114424;28;20020;-72
2022/07/27 01:36:38;;;;;;;5.50;1.67;;;16.20;99.90;;;;;;5110845;28;20042;-71
2022/07/27 01:39:04;;;;;;;7.75;1.88;;;16.20;99.90;;;;;;5103614;28;20161;-72
2022/07/27 01:41:30;;;;;;;4.55;1.33;;;16.30;99.90;;;;;;5114321;28;20050;-62
2022/07/27 01:43:56;;;;;;;5.60;1.60;;;16.10;99.90;;;;;;5114130;28;20027;-70
2022/07/27 01:46:22;;;;;;;7.85;1.77;;;16.10;99.90;;;;;;5114423;28;20023;-70
2022/07/27 01:48:48;;;;;;;4.32;1.48;;;16.10;99.90;;;;;;5095752;28;20039;-68
2022/07/27 01:51:14;;;;;;;6.78;1.70;;;16.10;99.90;;;;;;5114490;28;20095;-70
2022/07/27 01:53:39;;;;;;;5.97;1.60;;;16.10;99.90;;;;;;5114258;28;20031;-70
2022/07/27 01:56:09;;;;;;;5.95;2.08;;;16.00;99.90;;;;;;5113984;28;20116;-71
2022/07/27 01:58:37;;;;;;;3.50;1.50;;;15.90;99.90;;;;;;5113322;28;20035;-69
2022/07/27 02:01:04;;;;;;;3.42;1.20;;;15.40;99.90;;;;;;5114212;28;20039;-69
2022/07/27 02:03:31;;;;;;;5.63;1.90;;;15.20;99.90;;;;;;5113734;28;20024;-71
2022/07/27 02:05:57;;;;;;;8.43;2.13;;;15.20;99.90;;;;;;5113949;28;20020;-71
2022/07/27 02:08:22;;;;;;;3.75;1.40;;;15.20;99.90;;;;;;5113882;28;20035;-71
2022/07/27 02:13:33;;;;;;;4.75;2.33;;;15.40;99.90;;;;;;5105597;28;20372;-68
2022/07/27 02:15:59;;;;;;;9.25;1.60;;;15.50;99.90;;;;;;5113729;28;20098;-68
2022/07/27 02:18:26;;;;;;;8.45;1.80;;;15.50;99.90;;;;;;5113696;28;20460;-71
2022/07/27 02:20:52;;;;;;;5.15;1.83;;;15.30;99.90;;;;;;5113756;28;20040;-69
2022/07/27 02:23:17;;;;;;;3.75;1.52;;;15.50;99.90;;;;;;5113787;28;20019;-72
2022/07/27 02:25:43;;;;;;;5.55;1.45;;;15.20;99.90;;;;;;5113944;28;20036;-70
2022/07/27 02:28:09;;;;;;;4.97;1.63;;;15.20;99.90;;;;;;5113483;28;20024;-69
2022/07/27 02:30:35;;;;;;;6.03;1.60;;;14.90;99.90;;;;;;5113644;28;20585;-71
2022/07/27 02:33:01;;;;;;;4.53;1.83;;;14.70;99.90;;;;;;5113494;28;20076;-67
2022/07/27 02:35:27;;;;;;;3.75;1.65;;;14.90;99.90;;;;;;5113609;28;20375;-71
2022/07/27 02:37:52;;;;;;;7.38;2.10;;;15.10;99.90;;;;;;5113333;28;20028;-71
2022/07/27 02:40:19;;;;;;;5.32;1.80;;;15.10;99.90;;;;;;5113401;28;20024;-70
2022/07/27 02:42:46;;;;;;;5.20;2.10;;;15.00;99.90;;;;;;5113115;28;20031;-70
2022/07/27 02:45:13;;;;;;;6.63;1.90;;;14.60;99.90;;;;;;5113079;28;20024;-68
2022/07/27 02:47:39;;;;;;;7.95;1.98;;;14.50;99.90;;;;;;5113731;28;20380;-71
2022/07/27 02:50:08;;;;;;;6.68;1.75;;;14.50;99.90;;;;;;5113139;28;20012;-69
2022/07/27 02:52:35;;;;;;;7.47;1.80;;;14.50;99.90;;;;;;5113463;28;20027;-71
2022/07/27 02:55:01;;;;;;;6.65;1.75;;;14.40;99.90;;;;;;5112561;28;20034;-70
2022/07/27 02:57:26;;;;;;;4.45;1.88;;;14.30;99.90;;;;;;5095043;28;20020;-68
2022/07/27 02:59:52;;;;;;;5.18;1.67;;;14.10;99.90;;;;;;5112831;28;20464;-69
2022/07/27 03:02:18;;;;;;;6.85;1.90;;;14.20;99.90;;;;;;5113380;28;20559;-68
2022/07/27 03:04:43;;;;;;;5.20;2.13;;;14.20;99.90;;;;;;5113128;28;20031;-68
2022/07/27 03:07:09;;;;;;;3.40;1.52;;;14.20;99.90;;;;;;5113003;28;20031;-71
2022/07/27 03:09:35;;;;;;;4.93;1.90;;;14.50;99.90;;;;;;5112733;28;20042;-71
2022/07/27 03:12:01;;;;;;;8.02;2.47;;;14.60;99.90;;;;;;5099416;28;20522;-70
2022/07/27 03:14:27;;;;;;;5.85;2.10;;;14.80;99.90;;;;;;5111288;28;20027;-71
2022/07/27 03:16:53;;;;;;;7.32;2.30;;;14.90;99.90;;;;;;5113032;28;20456;-68
2022/07/27 03:19:19;;;;;;;8.68;2.55;;;15.00;99.90;;;;;;5112809;28;20039;-70
2022/07/27 03:21:45;;;;;;;9.40;2.30;;;14.90;99.90;;;;;;5113039;28;20020;-71
2022/07/27 03:24:10;;;;;;;8.65;2.60;;;14.90;99.90;;;;;;5112506;28;20028;-71
2022/07/27 03:26:36;;;;;;;10.82;2.20;;;14.80;99.90;;;;;;5113053;28;20383;-65
2022/07/27 03:29:02;;;;;;;6.22;2.78;;;14.90;99.90;;;;;;5112860;28;20085;-69
2022/07/27 03:31:28;;;;;;;3.67;2.03;;;14.90;99.90;;;;;;5112874;28;20027;-70
2022/07/27 03:33:54;;;;;;;7.40;2.45;;;15.00;99.90;;;;;;5112865;28;20042;-68
2022/07/27 03:36:20;;;;;;;7.88;2.05;;;14.60;99.90;;;;;;5112819;28;20024;-62
2022/07/27 03:38:46;;;;;;;7.85;2.72;;;14.20;99.90;;;;;;5112611;28;20036;-70
2022/07/27 03:41:12;;;;;;;7.53;2.42;;;14.20;99.90;;;;;;5094655;28;20356;-62
2022/07/27 03:43:37;;;;;;;7.15;2.25;;;14.40;99.90;;;;;;5112833;28;20032;-70
2022/07/27 03:46:03;;;;;;;4.75;2.22;;;14.60;99.90;;;;;;5114643;28;20015;-68
2022/07/27 03:48:29;;;;;;;9.10;2.45;;;14.80;99.90;;;;;;5116636;28;20020;-62
2022/07/27 03:50:55;;;;;;;5.72;2.25;;;14.80;99.90;;;;;;5098313;28;20085;-68
2022/07/27 03:53:20;;;;;;;5.85;2.00;;;14.70;99.90;;;;;;5116177;28;20028;-62
2022/07/27 03:55:50;;;;;;;5.65;2.00;;;14.50;99.90;;;;;;5116164;28;20040;-70
2022/07/27 03:58:17;;;;;;;10.15;2.30;;;14.10;99.90;;;;;;5116437;28;20393;-62
2022/07/27 04:00:45;;;;;;;4.57;1.92;;;13.70;99.90;;;;;;5116084;28;20028;-69
2022/07/27 04:03:11;;;;;;;11.82;2.28;;;13.70;99.90;;;;;;5116156;28;20462;-68
2022/07/27 04:05:37;;;;;;;4.32;2.35;;;14.00;99.90;;;;;;5116149;28;20052;-71
2022/07/27 04:08:02;;;;;;;7.35;1.95;;;14.10;99.90;;;;;;5116170;28;20372;-71
2022/07/27 04:10:28;;;;;;;2.42;1.52;;;14.10;99.90;;;;;;5096872;28;20467;-71
2022/07/27 04:12:54;;;;;;;5.85;2.05;;;14.00;99.90;;;;;;5102775;28;20460;-71
2022/07/27 04:15:20;;;;;;;11.90;2.60;;;13.60;99.90;;;;;;5115792;28;20028;-71
2022/07/27 04:17:46;;;;;;;4.13;1.92;;;13.60;99.90;;;;;;5097709;28;20495;-71
2022/07/27 04:20:12;;;;;;;4.40;2.20;;;13.60;99.90;;;;;;5116103;28;20024;-71
2022/07/27 04:22:38;;;;;;;6.45;2.65;;;13.90;99.90;;;;;;5115769;28;20519;-71
2022/07/27 04:25:05;;;;;;;3.47;1.90;;;14.10;99.90;;;;;;5115790;28;20051;-71
2022/07/27 04:27:31;;;;;;;4.28;1.95;;;13.90;99.90;;;;;;5116022;28;20122;-70
2022/07/27 04:29:57;;;;;;;6.63;2.17;;;14.10;99.90;;;;;;5115897;28;20019;-64
2022/07/27 04:32:23;;;;;;;6.80;2.00;;;14.00;99.90;;;;;;5115896;28;20069;-68
2022/07/27 04:34:48;;;;;;;9.80;2.35;;;14.10;99.90;;;;;;5097279;28;20030;-65
2022/07/27 04:37:14;;;;;;;10.63;2.30;;;14.40;99.90;;;;;;5115373;28;20379;-62
2022/07/27 04:39:40;;;;;;;6.13;2.50;;;14.30;99.90;;;;;;5115894;28;20115;-66
2022/07/27 04:42:07;;;;;;;12.20;2.92;;;14.50;99.90;;;;;;5115747;28;20019;-65
2022/07/27 04:44:33;;;;;;;11.30;3.05;;;14.80;99.90;;;;;;5115235;28;20408;-67
2022/07/27 04:46:59;;;;;;;5.15;3.05;;;14.80;99.90;;;;;;5115379;28;20080;-68
2022/07/27 04:49:25;;;;;;;9.13;3.55;;;14.70;99.90;;;;;;5115779;28;20103;-70
2022/07/27 04:51:51;;;;;;;6.55;2.42;;;14.90;99.90;;;;;;5114973;28;20027;-63
2022/07/27 04:54:16;;;;;;;12.55;3.33;;;15.10;99.90;;;;;;5115147;28;20462;-68
2022/07/27 04:56:42;;;;;;;6.40;3.28;;;15.20;99.90;;;;;;5115042;28;20034;-69
2022/07/27 04:59:08;;;;;;;13.27;3.20;;;15.40;99.90;;;;;;5115364;28;20036;-70
2022/07/27 05:01:34;;;;;;;6.35;2.78;;;15.50;99.90;;;;;;5115154;28;20138;-69
2022/07/27 05:03:59;;;;;;;9.50;2.90;;;15.60;99.90;;;;;;5115107;28;20019;-70
2022/07/27 05:06:25;;;;;;;4.03;2.97;;;15.40;99.90;;;;;;5114756;28;20024;-62
2022/07/27 05:08:51;;;;;;;10.88;3.00;;;15.60;99.90;;;;;;5114976;28;20063;-66
2022/07/27 05:11:16;;;;;;;8.63;2.78;;;15.60;99.90;;;;;;5107523;28;20024;-68
2022/07/27 05:13:42;;;;;;;8.10;2.90;;;15.90;99.90;;;;;;5108515;28;20467;-67
2022/07/27 05:16:09;;;;;;;10.05;2.53;;;16.10;99.90;;;;;;5114662;28;20399;-67
2022/07/27 05:18:36;;;;;;;19.80;3.58;;;16.10;99.90;;;;;;5115146;28;20361;-70
2022/07/27 05:21:02;;;;;;;9.82;2.60;;;16.00;99.90;;;;;;5114442;28;20012;-68
2022/07/27 05:23:28;;;;;;;6.75;3.20;;;16.00;99.90;;;;;;5114790;28;20046;-70
2022/07/27 05:25:55;;;;;;;7.03;2.63;;;15.60;99.90;;;;;;5114308;28;20120;-69
2022/07/27 05:28:20;;;;;;;6.70;2.42;;;15.50;99.90;;;;;;5114675;28;20032;-70
2022/07/27 05:30:46;;;;;;;4.63;2.33;;;15.90;99.90;;;;;;5114712;28;20028;-69
2022/07/27 05:33:12;;;;;;;9.52;2.88;;;16.00;99.90;;;;;;5114635;28;20027;-69
2022/07/27 05:35:38;;;;;;;8.80;2.72;;;15.70;99.90;;;;;;5114308;28;20047;-62
2022/07/27 05:38:04;;;;;;;6.90;2.85;;;15.80;99.90;;;;;;5114127;28;20437;-69
2022/07/27 05:40:30;;;;;;;10.50;2.90;;;15.90;99.90;;;;;;5114463;28;20027;-69
2022/07/27 05:42:56;;;;;;;9.02;3.00;;;15.90;99.90;;;;;;5114165;28;20364;-70
2022/07/27 05:45:22;;;;;;;8.32;3.10;;;16.00;99.90;;;;;;5096090;28;20065;-69
2022/07/27 05:47:48;;;;;;;10.77;2.80;;;16.30;99.90;;;;;;5114124;28;20035;-67
2022/07/27 05:50:15;;;;;;;5.75;1.83;;;16.30;99.90;;;;;;5114128;28;20027;-71
2022/07/27 05:52:42;;;;;;;6.25;2.80;;;16.30;99.90;;;;;;5096093;28;20028;-64
2022/07/27 05:55:08;;;;;;;10.15;2.88;;;16.70;99.90;;;;;;5113724;28;20044;-70
2022/07/27 05:57:35;;;;;;;9.10;3.03;;;16.50;99.90;;;;;;5114070;28;20023;-68
2022/07/27 06:00:01;;;;;;;10.50;3.08;;;16.50;99.90;;;;;;5113810;28;20076;-68
2022/07/27 06:02:37;;;;;;;7.10;2.50;;;16.70;99.90;;;;;;5114095;28;20027;-68
2022/07/27 06:05:04;;;;;;;6.18;2.70;;;16.20;99.90;;;;;;5113423;28;20072;-70
2022/07/27 06:10:15;;;;;;;4.90;2.65;;;15.50;99.90;;;;;;5113544;28;20050;-69
2022/07/27 06:12:42;;;;;;;7.10;2.50;;;15.20;99.90;;;;;;5099322;28;20011;-61
2022/07/27 06:15:09;;;;;;;10.93;3.10;;;15.60;99.90;;;;;;5113668;28;20031;-69
2022/07/27 06:17:35;;;;;;;11.50;2.90;;;15.80;99.90;;;;;;5113404;28;20030;-65
2022/07/27 06:20:03;;;;;;;11.73;2.45;;;15.60;99.90;;;;;;5113236;28;20040;-69
2022/07/27 06:22:29;;;;;;;10.07;2.60;;;15.20;99.90;;;;;;5113400;28;20043;-69
2022/07/27 06:24:54;;;;;;;5.93;2.80;;;15.60;99.90;;;;;;5113540;28;20050;-70
2022/07/27 06:27:20;;;;;;;6.45;2.80;;;15.90;99.90;;;;;;5108647;27;20027;-65
2022/07/27 06:29:46;;;;;;;7.85;2.35;;;16.50;99.90;;;;;;5115024;27;20490;-65
2022/07/27 06:32:12;;;;;;;3.55;2.00;;;16.00;99.90;;;;;;5125964;27;20052;-65
2022/07/27 06:34:37;;;;;;;3.72;1.90;;;16.30;99.90;;;;;;5116754;27;20103;-69
2022/07/27 06:37:03;;;;;;;7.72;2.13;;;17.00;99.90;;;;;;5112478;27;20433;-64
2022/07/27 06:39:29;;;;;;;9.82;2.38;;;17.30;99.90;;;;;;5094585;28;20030;-65
2022/07/27 06:41:55;;;;;;;5.07;1.90;;;17.10;99.90;;;;;;5118200;27;20022;-69
2022/07/27 06:44:21;;;;;;;8.50;2.63;;;17.30;99.90;;;;;;5113778;28;20480;-61
2022/07/27 06:46:47;;;;;;;5.75;1.90;;;17.30;99.90;;;;;;5105596;28;20024;-69
2022/07/27 06:49:13;;;;;;;5.18;2.17;;;17.70;99.90;;;;;;5104465;28;20054;-65
2022/07/27 06:51:39;;;;;;;12.68;1.80;;;18.10;99.90;;;;;;5111795;27;20208;-68
2022/07/27 06:54:05;;;;;;;6.97;2.13;;;18.30;99.90;;;;;;5117778;28;20034;-68
2022/07/27 06:56:31;;;;;;;7.20;2.00;;;18.30;99.90;;;;;;5099851;28;20023;-69
2022/07/27 06:58:57;;;;;;;5.38;1.73;;;18.60;99.90;;;;;;5117357;28;20031;-63
2022/07/27 07:01:23;;;;;;;5.05;1.95;;;18.00;99.90;;;;;;5115222;28;20363;-66
2022/07/27 07:03:49;;;;;;;5.85;1.60;;;17.70;99.90;;;;;;5095714;28;20031;-63
2022/07/27 07:06:15;;;;;;;5.80;2.13;;;17.80;99.90;;;;;;5119702;28;20410;-65
2022/07/27 07:08:40;;;;;;;3.78;1.90;;;18.20;99.90;;;;;;5121138;28;20020;-62
2022/07/27 07:11:08;;;;;;;10.85;2.17;;;18.20;99.90;;;;;;5110928;28;20050;-62
2022/07/27 07:13:34;;;;;;;7.15;2.08;;;18.50;99.90;;;;;;5122038;28;20073;-62
2022/07/27 07:15:59;;;;;;;10.20;2.45;;;18.30;99.90;;;;;;5114128;28;20020;-65
2022/07/27 07:18:25;;;;;;;4.43;1.42;;;17.30;99.90;;;;;;5121346;28;20531;-70
2022/07/27 07:20:51;;;;;;;5.57;1.67;;;17.50;99.90;;;;;;5128216;27;20068;-63
2022/07/27 07:23:17;;;;;;;5.50;1.60;;;17.70;99.90;;;;;;5124022;27;20392;-71
2022/07/27 07:25:43;;;;;;;10.93;1.35;;;18.00;99.90;;;;;;5123770;27;20019;-69
2022/07/27 07:28:08;;;;;;;4.78;1.00;;;18.20;99.90;;;;;;5102702;28;20031;-71
2022/07/27 07:30:35;;;;;;;3.75;0.80;;;18.70;99.90;;;;;;5117282;27;20030;-65
2022/07/27 07:33:01;;;;;;;3.53;0.80;;;18.90;99.90;;;;;;5125440;27;20456;-70
2022/07/27 07:35:27;;;;;;;3.13;0.75;;;18.80;99.90;;;;;;5122932;27;20016;-68
2022/07/27 07:37:52;;;;;;;5.55;1.15;;;18.80;99.90;;;;;;5121369;27;20069;-71
2022/07/27 07:40:18;;;;;;;3.85;0.98;;;18.80;99.90;;;;;;5089885;28;20119;-64
2022/07/27 07:42:51;;;;;;;4.63;1.05;;;18.80;99.90;;;;;;5116635;28;20012;-71
2022/07/27 07:45:17;;;;;;;5.43;0.90;;;19.10;99.90;;;;;;5123830;27;20031;-71
2022/07/27 07:47:43;;;;;;;4.35;1.00;;;19.30;99.90;;;;;;5089657;27;20030;-62
2022/07/27 07:50:09;;;;;;;3.13;0.93;;;19.50;99.90;;;;;;5116728;27;20032;-66
2022/07/27 07:52:36;;;;;;;4.95;1.20;;;19.70;99.90;;;;;;5118155;27;20088;-67
2022/07/27 07:55:02;;;;;;;8.45;1.38;;;20.00;99.90;;;;;;5123931;27;20027;-63
2022/07/27 07:57:28;;;;;;;4.70;0.90;;;20.10;99.90;;;;;;5112862;27;20024;-68
2022/07/27 07:59:54;;;;;;;3.95;1.05;;;20.40;99.90;;;;;;5122019;27;20080;-67
2022/07/27 08:02:20;;;;;;;5.70;1.17;;;20.60;99.90;;;;;;5115533;27;20552;-63
2022/07/27 08:04:46;;;;;;;3.58;0.80;;;20.90;99.90;;;;;;5117816;27;20463;-64
2022/07/27 08:07:12;;;;;;;4.38;0.80;;;21.10;99.30;;;;;;5115457;28;20128;-65
2022/07/27 08:09:38;;;;;;;5.15;0.80;;;20.80;99.20;;;;;;5124737;27;20041;-70
2022/07/27 08:12:05;;;;;;;5.45;0.80;;;20.40;98.80;;;;;;5114916;27;20374;-63
2022/07/27 08:14:31;;;;;;;3.17;1.17;;;20.00;99.90;;;;;;5107656;27;20020;-68
2022/07/27 08:16:57;;;;;;;3.88;1.08;;;19.70;99.90;;;;;;5116339;27;20027;-65
2022/07/27 08:19:23;;;;;;;3.38;0.80;;;19.80;99.90;;;;;;5128113;27;20399;-64
2022/07/27 08:21:49;;;;;;;4.57;1.00;;;20.10;99.90;;;;;;5129119;27;20466;-65
2022/07/27 08:24:15;;;;;;;6.75;1.10;;;20.50;99.10;;;;;;5123948;27;20055;-64
2022/07/27 08:26:41;;;;;;;8.50;0.90;;;20.90;98.90;;;;;;5117584;27;20372;-70
2022/07/27 08:29:07;;;;;;;3.08;0.68;;;20.30;98.60;;;;;;5114900;27;20458;-68
2022/07/27 08:31:32;;;;;;;3.83;1.00;;;20.40;99.20;;;;;;5128378;27;20085;-70
2022/07/27 08:33:58;;;;;;;2.22;0.65;;;19.80;99.40;;;;;;5128154;27;20475;-65
2022/07/27 08:36:24;;;;;;;3.70;0.80;;;20.10;99.90;;;;;;5120622;27;20098;-63
2022/07/27 08:38:50;;;;;;;2.75;1.08;;;20.10;99.90;;;;;;5116889;27;20491;-69
2022/07/27 08:41:20;;;;;;;3.35;1.10;;;19.90;99.90;;;;;;5128624;27;20015;-63
2022/07/27 08:43:47;;;;;;;4.35;0.93;;;20.10;99.90;;;;;;5130082;27;20126;-67
2022/07/27 08:46:17;;;;;;;7.07;0.95;;;20.50;99.90;;;;;;5108359;27;20042;-70
2022/07/27 08:48:43;;;;;;;4.88;1.30;;;20.60;99.90;;;;;;5119249;27;20020;-66
2022/07/27 08:51:10;;;;;;;5.20;0.98;;;20.90;99.40;;;;;;5116486;27;20434;-65
2022/07/27 08:53:36;;;;;;;4.25;0.90;;;20.90;99.60;;;;;;5130166;27;20081;-70
2022/07/27 08:56:03;;;;;;;2.70;0.98;;;20.60;99.40;;;;;;5128443;27;20393;-68
2022/07/27 08:58:29;;;;;;;2.13;0.85;;;20.60;99.60;;;;;;5120427;27;20483;-62
2022/07/27 09:00:55;;;;;;;3.50;1.00;;;20.60;99.90;;;;;;5118258;27;20034;-65
2022/07/27 09:03:22;;;;;;;1.95;0.63;;;20.70;99.70;;;;;;5116427;27;20502;-69
2022/07/27 09:05:57;;;;;;;2.63;1.00;;;20.80;99.30;;;;;;5131757;27;20086;-63
2022/07/27 09:08:24;;;;;;;11.02;1.08;;;20.90;99.80;;;;;;5127360;27;20027;-71
2022/07/27 09:10:53;;;;;;;4.47;1.10;;;21.20;99.90;;;;;;5097561;28;20384;-68
2022/07/27 09:13:28;;;;;;;8.25;1.40;;;21.00;99.70;;;;;;5116783;27;20030;-68
2022/07/27 09:15:59;;;;;;;3.97;1.15;;;20.90;99.90;;;;;;5112881;27;20497;-71
2022/07/27 09:18:28;;;;;;;8.15;1.30;;;21.00;99.90;;;;;;5123113;27;20407;-71
2022/07/27 09:21:14;;;;;;;6.00;1.45;;;21.00;99.20;;;;;;5128160;27;20092;-62
2022/07/27 09:23:47;;;;;;;7.43;1.63;;;20.60;99.50;;;;;;5124704;27;20031;-65
2022/07/27 09:26:16;;;;;;;3.92;1.20;;;20.90;99.00;;;;;;5118322;27;20034;-64
2022/07/27 09:28:42;;;;;;;4.60;1.27;;;21.50;98.90;;;;;;5114199;28;20425;-63
2022/07/27 09:31:10;;;;;;;5.78;1.30;;;21.70;97.80;;;;;;5126401;27;20399;-64
2022/07/27 09:33:47;;;;;;;6.65;1.25;;;21.70;98.00;;;;;;5125611;27;20034;-62
2022/07/27 09:36:13;;;;;;;5.05;1.75;;;21.80;97.70;;;;;;5121162;27;20031;-63
2022/07/27 09:38:53;;;;;;;6.75;1.17;;;21.40;97.80;;;;;;5094737;28;20031;-65
2022/07/27 09:41:19;;;;;;;5.97;1.50;;;21.10;98.20;;;;;;5112820;28;20426;-62
2022/07/27 09:43:53;;;;;;;5.60;1.30;;;20.70;99.20;;;;;;5110529;27;20027;-62
2022/07/27 09:46:33;;;;;;;2.58;1.20;;;20.70;99.60;;;;;;5111177;27;20047;-62
2022/07/27 09:48:59;;;;;;;2.80;0.80;;;20.70;99.50;;;;;;5111023;28;20047;-64
2022/07/27 09:51:25;;;;;;;3.42;1.52;;;20.40;99.90;;;;;;5115481;28;20077;-68
2022/07/27 09:53:52;;;;;;;4.38;1.08;;;20.30;99.90;;;;;;5092518;28;20377;-65
2022/07/27 09:56:28;;;;;;;6.72;1.30;;;20.70;99.90;;;;;;5113904;28;20228;-62
2022/07/27 09:58:56;;;;;;;7.07;1.55;;;20.90;99.50;;;;;;5113933;28;20039;-62
2022/07/27 10:01:36;;;;;;;3.80;1.10;;;21.10;99.30;;;;;;5107743;28;20106;-68
2022/07/27 10:04:04;;;;;;;7.45;1.20;;;21.20;98.50;;;;;;5108205;28;20020;-62
2022/07/27 10:06:30;;;;;;;5.38;1.35;;;20.70;98.50;;;;;;5113666;28;20016;-65
2022/07/27 10:08:57;;;;;;;6.57;1.30;;;20.70;99.10;;;;;;5113995;28;20034;-61
2022/07/27 10:11:24;;;;;;;2.58;0.90;;;20.80;99.20;;;;;;5105309;28;20059;-61
2022/07/27 10:13:52;;;;;;;4.00;0.98;;;21.20;98.30;;;;;;5108074;28;20531;-67
2022/07/27 10:16:29;;;;;;;3.15;1.13;;;21.20;97.90;;;;;;5113814;28;20088;-62
2022/07/27 10:19:02;;;;;;;6.20;1.17;;;21.80;96.20;;;;;;5113560;28;20530;-61
2022/07/27 10:21:31;;;;;;;5.22;0.88;;;21.70;97.60;;;;;;5113782;28;20027;-61
2022/07/27 10:23:58;;;;;;;10.07;1.42;;;22.10;96.80;;;;;;5095458;28;20038;-62
2022/07/27 10:26:23;;;;;;;4.00;1.02;;;22.60;95.60;;;;;;5113524;28;20031;-62
2022/07/27 10:29:02;;;;;;;5.00;1.20;;;22.80;94.60;;;;;;5113474;28;20023;-62
2022/07/27 10:31:38;;;;;;;3.58;1.05;;;22.90;94.10;;;;;;5113530;28;20400;-61
2022/07/27 10:34:09;;;;;;;6.05;1.08;;;22.30;93.50;;;;;;5113468;28;20045;-61
2022/07/27 10:36:44;;;;;;;5.70;1.00;;;22.10;94.00;;;;;;5113351;28;20129;-61
2022/07/27 10:39:10;;;;;;;1.42;0.73;;;22.60;94.00;;;;;;5113016;28;20126;-62
2022/07/27 10:41:42;;;;;;;3.15;1.10;;;22.20;93.50;;;;;;5113547;28;20084;-65
2022/07/27 10:44:16;;;;;;;5.78;0.90;;;21.90;93.70;;;;;;5113010;28;20507;-64
2022/07/27 10:46:54;;;;;;;4.82;1.00;;;22.00;94.00;;;;;;5113350;28;20337;-65
2022/07/27 10:49:47;;;;;;;3.53;0.98;;;22.40;93.30;;;;;;5094809;28;20039;-63
2022/07/27 10:52:50;;;;;;;3.65;1.15;;;22.90;92.20;;;;;;5108449;28;20092;-62
2022/07/27 10:55:35;;;;;;;3.75;1.10;;;23.30;91.20;;;;;;5111553;28;20170;-66
2022/07/27 10:58:09;;;;;;;2.30;0.75;;;23.50;91.00;;;;;;5113002;28;20039;-61
2022/07/27 11:00:47;;;;;;;2.58;0.80;;;23.30;90.60;;;;;;5113108;28;20430;-61
2022/07/27 11:03:28;;;;;;;2.63;0.90;;;23.90;90.40;;;;;;5112839;28;20046;-62
2022/07/27 11:06:01;;;;;;;3.15;0.70;;;24.40;88.80;;;;;;5112876;28;20054;-62
2022/07/27 11:08:40;;;;;;;3.45;1.13;;;24.20;89.00;;;;;;5112637;28;20028;-64
2022/07/27 11:11:07;;;;;;;6.55;0.88;;;24.60;88.30;;;;;;5088807;28;20024;-61
2022/07/27 11:13:33;;;;;;;4.03;1.33;;;25.00;86.90;;;;;;5104937;28;20063;-67
2022/07/27 11:16:03;;;;;;;3.30;0.73;;;25.60;83.90;;;;;;5112614;28;20051;-64
2022/07/27 11:18:31;;;;;;;2.58;0.75;;;25.20;84.30;;;;;;5094694;28;20036;-65
2022/07/27 11:21:21;;;;;;;1.95;0.80;;;25.50;84.40;;;;;;5112325;28;20116;-61
2022/07/27 11:23:55;;;;;;;3.25;0.90;;;25.00;81.60;;;;;;5112714;28;20027;-61
2022/07/27 11:26:24;;;;;;;4.28;0.98;;;25.20;84.40;;;;;;5112455;28;20023;-61
2022/07/27 11:28:51;;;;;;;4.22;0.63;;;25.00;82.80;;;;;;5112958;28;20485;-62
2022/07/27 11:31:17;;;;;;;3.03;0.70;;;25.00;82.90;;;;;;5112786;28;20019;-63
2022/07/27 11:33:50;;;;;;;5.68;0.90;;;25.50;82.00;;;;;;5113065;28;20036;-62
2022/07/27 11:36:15;;;;;;;4.07;0.93;;;25.50;80.20;;;;;;5112483;28;20052;-62
2022/07/27 11:38:46;;;;;;;7.07;0.68;;;25.90;80.90;;;;;;5112635;28;20063;-62
2022/07/27 11:41:24;;;;;;;3.45;0.90;;;25.60;81.00;;;;;;5112668;28;20024;-61
2022/07/27 11:43:50;;;;;;;2.65;0.68;;;25.90;80.20;;;;;;5111811;28;20023;-62
2022/07/27 11:46:18;;;;;;;2.80;0.70;;;25.70;79.90;;;;;;5112347;28;20035;-61
2022/07/27 11:48:55;;;;;;;2.40;0.70;;;25.60;80.40;;;;;;5112944;28;20032;-61
2022/07/27 11:51:22;;;;;;;2.78;0.90;;;24.90;79.90;;;;;;5112728;28;20028;-62
2022/07/27 11:53:55;;;;;;;2.20;0.55;;;24.50;80.20;;;;;;5112431;28;20379;-65
2022/07/27 11:56:23;;;;;;;3.50;0.80;;;25.40;81.00;;;;;;5112601;28;20064;-61
2022/07/27 11:59:14;;;;;;;4.35;0.85;;;25.70;77.00;;;;;;5112714;28;20023;-61
2022/07/27 12:01:43;;;;;;;2.95;0.98;;;24.20;79.40;;;;;;5112506;28;20031;-63
2022/07/27 12:04:23;;;;;;;4.18;0.90;;;24.30;79.50;;;;;;5112676;28;20353;-61
2022/07/27 12:07:11;;;;;;;3.17;1.00;;;25.00;79.50;;;;;;5113839;28;20023;-62
2022/07/27 12:09:39;;;;;;;2.00;0.70;;;25.00;79.50;;;;;;5116321;28;20047;-65
2022/07/27 12:12:12;;;;;;;5.07;1.17;;;25.00;79.80;;;;;;5083586;28;20085;-62
2022/07/27 12:14:41;;;;;;;2.55;0.80;;;24.70;78.70;;;;;;5115903;28;20028;-61
2022/07/27 12:17:20;;;;;;;1.38;0.70;;;24.20;77.10;;;;;;5116068;28;20016;-62
2022/07/27 12:19:50;;;;;;;2.30;0.70;;;24.40;79.00;;;;;;5102395;28;20063;-61
2022/07/27 12:22:24;;;;;;;3.20;1.00;;;24.60;80.10;;;;;;5126573;27;20027;-62
2022/07/27 12:24:49;;;;;;;1.35;0.70;;;24.70;78.90;;;;;;5120263;27;20476;-67
2022/07/27 12:27:15;;;;;;;4.45;0.90;;;24.80;79.10;;;;;;5118360;27;20022;-61
2022/07/27 12:30:01;;;;;;;4.28;1.20;;;25.30;80.80;;;;;;5114023;27;20019;-67
2022/07/27 12:32:29;;;;;;;3.78;1.10;;;25.80;79.20;;;;;;5109994;27;20035;-66
2022/07/27 12:34:55;;;;;;;8.55;1.25;;;26.10;79.10;;;;;;5117012;27;20016;-61
2022/07/27 12:37:21;;;;;;;5.40;1.10;;;25.50;79.40;;;;;;5108208;27;20046;-62
2022/07/27 12:39:48;;;;;;;2.83;0.95;;;25.70;79.90;;;;;;5115074;28;20036;-70
2022/07/27 12:42:14;;;;;;;4.97;1.17;;;26.50;79.40;;;;;;5119792;27;20115;-64
2022/07/27 12:44:45;;;;;;;2.85;0.80;;;25.70;78.50;;;;;;5117753;27;20038;-61
2022/07/27 12:50:07;;;;;;;2.90;0.90;;;24.70;80.30;;;;;;5110992;27;20480;-64
2022/07/27 12:52:35;;;;;;;3.63;0.80;;;24.70;80.80;;;;;;5109927;28;20023;-69
2022/07/27 12:55:02;;;;;;;4.25;1.05;;;25.00;79.80;;;;;;5111963;27;20027;-70
2022/07/27 12:57:28;;;;;;;3.03;0.90;;;25.60;78.80;;;;;;5118925;27;20464;-63
2022/07/27 12:59:54;;;;;;;2.47;0.90;;;26.30;79.40;;;;;;5112763;27;20034;-67